Time;durP1;ratioP1;P1;durP2;ratioP2;P2;SDS_P1;SDS_P2;PMS_P1;PMS_P2;Temp;Humidity;BMP_temperature;BMP_pressure;BME280_temperature;BME280_humidity;BME280_pressure;Samples;Min_cycle;Max_cycle;Signal;HPM_P1;HPM_P2
2022/07/21 00:01:13;;;;;;;10.30;2.90;;;;;;;22.48;51.22;100431.19;4990840;28;20061;-71
2022/07/21 00:03:38;;;;;;;7.50;2.80;;;;;;;22.70;52.61;100494.94;4990746;28;20116;-72
2022/07/21 00:06:04;;;;;;;5.75;2.40;;;;;;;22.50;52.05;100474.13;4990785;28;20120;-71
2022/07/21 00:08:30;;;;;;;7.00;2.90;;;;;;;22.67;52.30;100490.56;4994140;28;20041;-70
2022/07/21 00:10:56;;;;;;;5.70;2.63;;;;;;;22.38;52.19;100443.56;4981833;28;20047;-73
2022/07/21 00:13:21;;;;;;;7.55;2.38;;;;;;;22.70;51.87;100484.41;4973772;28;20014;-72
2022/07/21 00:15:47;;;;;;;4.45;2.25;;;;;;;22.45;51.79;100422.47;4974362;28;20034;-72
2022/07/21 00:18:12;;;;;;;3.58;2.50;;;;;;;22.86;51.33;100461.38;4974478;28;20101;-72
2022/07/21 00:20:38;;;;;;;5.82;2.20;;;;;;;23.06;50.98;100476.88;4974637;28;20066;-73
2022/07/21 00:23:04;;;;;;;6.13;2.50;;;;;;;23.18;50.36;100475.84;4974311;28;20054;-71
2022/07/21 00:25:29;;;;;;;4.85;2.42;;;;;;;23.25;51.01;100481.03;4974643;28;20105;-71
2022/07/21 00:27:55;;;;;;;4.38;2.33;;;;;;;22.79;51.44;100442.16;4974274;28;20038;-72
2022/07/21 00:30:21;;;;;;;5.03;2.63;;;;;;;22.79;51.17;100476.38;4974138;28;20039;-73
2022/07/21 00:32:46;;;;;;;6.45;2.72;;;;;;;22.68;51.47;100478.28;4973887;28;20027;-71
2022/07/21 00:35:12;;;;;;;7.65;2.80;;;;;;;22.58;51.52;100485.41;4955292;28;20039;-73
2022/07/21 00:37:39;;;;;;;5.93;2.90;;;;;;;22.58;51.10;100482.78;4973466;28;20067;-71
2022/07/21 00:40:06;;;;;;;3.72;2.38;;;;;;;22.68;51.37;100494.97;4974081;28;20038;-74
2022/07/21 00:42:32;;;;;;;6.90;2.75;;;;;;;22.78;51.64;100493.09;4973455;28;20070;-75
2022/07/21 00:44:59;;;;;;;5.35;2.50;;;;;;;22.75;51.39;100467.69;4969472;28;20516;-74
2022/07/21 00:47:30;;;;;;;3.75;2.40;;;;;;;22.88;51.02;100471.00;4964497;28;20031;-74
2022/07/21 00:49:58;;;;;;;5.03;2.60;;;;;;;22.86;51.52;100479.81;4971921;28;20115;-73
2022/07/21 00:52:23;;;;;;;6.03;2.50;;;;;;;22.29;52.42;100483.97;4973350;28;20037;-72
2022/07/21 00:54:49;;;;;;;6.07;2.60;;;;;;;22.08;53.73;100472.81;4973567;28;20023;-74
2022/07/21 00:57:15;;;;;;;5.63;2.47;;;;;;;21.44;54.59;100417.31;4954931;28;20043;-74
2022/07/21 00:59:42;;;;;;;5.88;2.58;;;;;;;21.32;56.41;100477.81;4974028;28;20106;-71
2022/07/21 01:02:08;;;;;;;5.88;2.47;;;;;;;20.88;58.00;100476.38;4972616;28;20027;-73
2022/07/21 01:04:34;;;;;;;5.32;2.30;;;;;;;20.59;58.92;100477.34;4973493;28;20041;-74
2022/07/21 01:07:04;;;;;;;5.00;2.63;;;;;;;20.51;59.31;100474.75;4973684;28;20051;-73
2022/07/21 01:09:31;;;;;;;4.78;2.70;;;;;;;20.22;59.72;100472.25;4972617;28;20030;-73
2022/07/21 01:11:58;;;;;;;4.80;2.78;;;;;;;19.82;60.90;100439.09;4974037;28;20469;-73
2022/07/21 01:14:24;;;;;;;5.18;2.88;;;;;;;19.90;61.03;100463.56;4973186;28;20026;-73
2022/07/21 01:16:50;;;;;;;5.90;2.78;;;;;;;19.61;61.72;100460.94;4973558;28;20081;-71
2022/07/21 01:19:15;;;;;;;6.50;2.70;;;;;;;19.52;62.52;100462.69;4972261;28;20114;-73
2022/07/21 01:21:43;;;;;;;6.18;2.95;;;;;;;19.55;62.72;100465.31;4973504;28;20030;-73
2022/07/21 01:24:09;;;;;;;5.80;2.85;;;;;;;19.44;62.60;100451.34;4973324;28;20042;-72
2022/07/21 01:26:45;;;;;;;8.75;3.00;;;;;;;19.61;62.66;100463.56;4973412;28;20030;-72
2022/07/21 01:29:12;;;;;;;4.65;3.50;;;;;;;19.57;63.21;100454.84;4973371;28;20030;-71
2022/07/21 01:31:38;;;;;;;4.13;2.47;;;;;;;19.71;62.59;100457.44;4973601;28;20109;-73
2022/07/21 01:34:04;;;;;;;4.47;3.00;;;;;;;19.51;63.75;100462.69;4972926;28;20066;-72
2022/07/21 01:36:29;;;;;;;6.55;2.65;;;;;;;19.65;62.77;100463.56;4973686;28;20055;-73
2022/07/21 01:41:39;;;;;;;7.15;2.90;;;;;;;19.03;64.96;100466.13;4973214;28;20128;-72
2022/07/21 01:44:07;;;;;;;8.82;2.78;;;;;;;19.07;64.89;100444.31;4972828;28;20481;-72
2022/07/21 01:46:39;;;;;;;5.68;2.63;;;;;;;19.20;63.76;100429.53;4972747;28;20035;-73
2022/07/21 01:49:05;;;;;;;7.63;3.03;;;;;;;19.40;63.60;100457.44;4972724;28;20409;-75
2022/07/21 01:51:30;;;;;;;3.72;2.38;;;;;;;19.32;63.37;100449.59;4973151;28;20065;-73
2022/07/21 01:53:56;;;;;;;4.55;2.40;;;;;;;19.33;63.53;100451.34;4972869;28;20471;-72
2022/07/21 01:56:23;;;;;;;5.55;2.58;;;;;;;19.27;63.64;100456.56;4972663;28;20030;-73
2022/07/21 01:58:51;;;;;;;7.45;2.60;;;;;;;18.79;63.95;100384.94;4972496;28;20489;-71
2022/07/21 02:01:17;;;;;;;7.00;2.15;;;;;;;19.02;64.36;100438.22;4972688;28;20489;-72
2022/07/21 02:03:44;;;;;;;5.43;2.45;;;;;;;19.05;64.12;100434.72;4972864;28;20022;-73
2022/07/21 02:06:10;;;;;;;4.45;2.33;;;;;;;18.99;64.04;100424.25;4972376;28;20098;-72
2022/07/21 02:08:35;;;;;;;5.97;2.60;;;;;;;18.96;63.61;100416.41;4973141;28;20026;-71
2022/07/21 02:11:02;;;;;;;5.13;2.72;;;;;;;18.60;65.10;100455.50;4972353;28;20481;-74
2022/07/21 02:13:27;;;;;;;3.72;2.42;;;;;;;18.75;65.15;100452.97;4972199;28;20034;-71
2022/07/21 02:15:53;;;;;;;6.28;2.65;;;;;;;18.68;65.57;100448.56;4972651;28;20018;-70
2022/07/21 02:18:19;;;;;;;7.03;2.60;;;;;;;18.73;65.45;100448.59;4972604;28;20030;-72
2022/07/21 02:20:47;;;;;;;4.13;2.80;;;;;;;18.80;65.03;100450.34;4971349;28;20023;-75
2022/07/21 02:23:13;;;;;;;3.80;2.67;;;;;;;18.51;66.05;100438.03;4972188;28;20045;-73
2022/07/21 02:25:39;;;;;;;5.20;2.90;;;;;;;18.42;65.81;100427.56;4972408;28;20516;-73
2022/07/21 02:28:05;;;;;;;6.68;2.40;;;;;;;18.53;65.94;100436.31;4970485;28;20026;-71
2022/07/21 02:30:30;;;;;;;8.55;3.05;;;;;;;18.59;65.54;100430.22;4971951;28;20489;-72
2022/07/21 02:32:56;;;;;;;6.25;2.35;;;;;;;18.30;64.52;100414.44;4972105;28;20502;-73
2022/07/21 02:35:21;;;;;;;4.50;2.40;;;;;;;18.22;63.92;100381.31;4972272;28;20030;-70
2022/07/21 02:37:47;;;;;;;8.20;2.55;;;;;;;18.49;63.59;100437.19;4972120;28;20158;-72
2022/07/21 02:40:12;;;;;;;5.72;2.38;;;;;;;18.49;64.05;100439.78;4971973;28;20165;-72
2022/07/21 02:42:39;;;;;;;5.72;2.45;;;;;;;18.36;64.13;100430.16;4971616;28;20136;-71
2022/07/21 02:45:06;;;;;;;4.68;2.50;;;;;;;18.14;64.30;100406.50;4971571;28;20030;-73
2022/07/21 02:47:31;;;;;;;4.45;2.30;;;;;;;18.47;63.92;100432.78;4972058;28;20662;-74
2022/07/21 02:49:59;;;;;;;8.10;2.50;;;;;;;18.06;63.76;100374.28;4976419;28;20031;-74
2022/07/21 02:52:24;;;;;;;4.75;2.40;;;;;;;18.43;63.89;100419.72;4972126;28;20027;-72
2022/07/21 02:54:50;;;;;;;5.15;2.40;;;;;;;18.23;63.97;100367.38;4971745;28;20034;-72
2022/07/21 02:57:15;;;;;;;4.75;2.28;;;;;;;18.68;64.10;100425.03;4976843;28;20029;-72
2022/07/21 02:59:41;;;;;;;6.93;2.40;;;;;;;18.83;63.37;100403.28;4971630;28;20034;-72
2022/07/21 03:02:06;;;;;;;5.88;2.60;;;;;;;19.11;62.60;100419.03;4971816;28;20023;-73
2022/07/21 03:04:31;;;;;;;6.85;2.55;;;;;;;19.31;62.33;100426.91;4971999;28;20023;-72
2022/07/21 03:06:57;;;;;;;6.63;2.55;;;;;;;19.40;62.39;100423.41;4971642;28;20775;-75
2022/07/21 03:09:22;;;;;;;9.35;2.60;;;;;;;19.59;61.91;100426.91;4971751;28;20462;-72
2022/07/21 03:11:48;;;;;;;4.45;2.60;;;;;;;19.58;61.07;100414.69;4970992;28;20498;-72
2022/07/21 03:14:13;;;;;;;7.15;2.83;;;;;;;19.63;60.64;100407.69;4971673;28;20026;-76
2022/07/21 03:16:38;;;;;;;13.27;3.33;;;;;;;19.76;60.54;100426.88;4971752;28;20035;-74
2022/07/21 03:19:04;;;;;;;7.00;2.60;;;;;;;19.73;60.78;100416.41;4971467;28;20045;-75
2022/07/21 03:21:29;;;;;;;6.22;3.00;;;;;;;19.26;61.96;100375.44;4971490;28;20739;-74
2022/07/21 03:23:55;;;;;;;7.22;2.75;;;;;;;19.53;62.14;100422.53;4971882;28;20034;-73
2022/07/21 03:26:20;;;;;;;8.32;3.15;;;;;;;19.57;61.99;100418.16;4971888;28;20030;-73
2022/07/21 03:28:46;;;;;;;6.82;2.90;;;;;;;19.67;61.97;100414.66;4971905;28;20063;-73
2022/07/21 03:31:11;;;;;;;15.93;3.40;;;;;;;19.68;61.36;100423.41;4971889;28;20042;-73
2022/07/21 03:33:37;;;;;;;5.47;3.13;;;;;;;19.45;61.02;100369.31;4953287;28;20046;-73
2022/07/21 03:36:03;;;;;;;5.63;2.90;;;;;;;19.73;60.41;100387.59;4971633;28;20035;-73
2022/07/21 03:38:28;;;;;;;3.50;2.72;;;;;;;19.65;60.12;100390.25;4971844;28;20023;-73
2022/07/21 03:40:54;;;;;;;4.18;2.78;;;;;;;19.86;60.15;100414.66;4971543;28;20026;-72
2022/07/21 03:43:19;;;;;;;9.82;3.35;;;;;;;19.94;59.98;100414.63;4975288;28;20110;-73
2022/07/21 03:45:45;;;;;;;6.15;2.88;;;;;;;19.98;59.33;100411.16;4975372;28;20035;-73
2022/07/21 03:48:11;;;;;;;6.55;3.20;;;;;;;19.79;59.92;100408.53;4975552;28;20034;-73
2022/07/21 03:50:41;;;;;;;4.50;2.90;;;;;;;19.66;60.86;100401.56;4975733;28;20205;-73
2022/07/21 03:53:06;;;;;;;9.10;3.25;;;;;;;19.64;61.22;100433.00;4975612;28;20109;-73
2022/07/21 03:55:33;;;;;;;6.63;3.53;;;;;;;19.53;61.54;100403.34;4975743;28;20122;-73
2022/07/21 03:58:01;;;;;;;10.85;3.30;;;;;;;19.45;62.28;100423.41;4975347;28;20401;-72
2022/07/21 04:00:31;;;;;;;5.25;2.90;;;;;;;19.32;62.23;100406.84;4975333;28;20535;-73
2022/07/21 04:02:57;;;;;;;;;;;;;;;19.48;62.26;100416.44;4975930;28;20065;-73
2022/07/21 04:05:23;;;;;;;7.05;3.22;;;;;;;19.45;62.26;100429.53;4975378;28;20426;-71
2022/07/21 04:07:51;;;;;;;7.88;3.60;;;;;;;19.32;62.58;100417.31;4976006;28;20697;-73
2022/07/21 04:10:26;;;;;;;4.85;3.10;;;;;;;19.23;63.60;100428.66;4994413;28;20034;-75
2022/07/21 04:12:52;;;;;;;9.27;3.10;;;;;;;19.12;64.40;100436.50;4994399;28;20488;-75
2022/07/21 04:15:18;;;;;;;9.52;3.58;;;;;;;18.86;65.80;100412.88;4994666;28;20058;-74
2022/07/21 04:17:44;;;;;;;5.20;3.03;;;;;;;18.89;66.38;100429.44;4994445;28;20088;-74
2022/07/21 04:20:12;;;;;;;7.03;3.33;;;;;;;18.90;66.57;100432.91;4994537;28;20502;-74
2022/07/21 04:22:37;;;;;;;5.72;3.45;;;;;;;19.02;66.52;100430.38;4994407;28;20117;-75
2022/07/21 04:25:06;;;;;;;7.35;3.20;;;;;;;19.11;66.36;100426.03;4994647;28;20101;-76
2022/07/21 04:27:33;;;;;;;9.68;3.75;;;;;;;18.70;66.69;100357.03;4994309;28;20041;-79
2022/07/21 04:29:59;;;;;;;6.38;3.47;;;;;;;19.03;67.05;100415.56;4994403;28;20100;-75
2022/07/21 04:32:24;;;;;;;9.65;3.10;;;;;;;18.81;66.88;100371.00;4993050;28;20042;-76
2022/07/21 04:34:50;;;;;;;5.20;3.17;;;;;;;19.27;67.02;100429.53;4994014;28;20385;-76
2022/07/21 04:37:15;;;;;;;9.95;3.33;;;;;;;19.28;67.12;100426.00;4994088;28;20034;-77
2022/07/21 04:39:41;;;;;;;7.35;3.83;;;;;;;18.94;67.42;100365.81;4994269;28;20084;-75
2022/07/21 04:42:06;;;;;;;12.48;3.40;;;;;;;19.32;67.21;100412.06;4994311;28;20026;-76
2022/07/21 04:44:32;;;;;;;9.13;3.58;;;;;;;19.41;67.58;100427.78;4994169;28;20037;-78
2022/07/21 04:46:57;;;;;;;7.75;3.20;;;;;;;19.41;68.23;100438.25;4994000;28;20034;-78
2022/07/21 04:49:23;;;;;;;5.75;3.30;;;;;;;19.48;68.04;100424.28;4975519;28;20034;-76
2022/07/21 04:51:48;;;;;;;6.25;3.30;;;;;;;19.06;67.97;100350.13;4993680;28;20030;-77
2022/07/21 04:54:14;;;;;;;5.45;3.20;;;;;;;19.47;68.57;100414.69;4993870;28;20054;-76
2022/07/21 04:56:41;;;;;;;7.90;3.30;;;;;;;19.28;67.54;100371.94;4992616;28;20038;-77
2022/07/21 04:59:07;;;;;;;24.30;3.78;;;;;;;19.73;66.63;100427.75;4993908;28;20026;-77
2022/07/21 05:01:33;;;;;;;6.45;3.17;;;;;;;19.56;66.36;100395.47;4993612;28;20037;-76
2022/07/21 05:03:58;;;;;;;8.10;2.88;;;;;;;19.88;66.31;100432.13;4993901;28;20030;-76
2022/07/21 05:06:23;;;;;;;5.53;3.00;;;;;;;20.03;65.78;100431.22;4993125;28;20491;-77
2022/07/21 05:08:49;;;;;;;5.15;2.80;;;;;;;20.20;65.42;100435.56;4993689;28;20084;-77
2022/07/21 05:11:14;;;;;;;11.27;3.10;;;;;;;20.11;64.41;100410.25;4993385;28;20034;-77
2022/07/21 05:13:40;;;;;;;8.02;3.03;;;;;;;19.93;64.26;100395.44;4993593;28;20108;-78
2022/07/21 05:16:05;;;;;;;6.22;2.95;;;;;;;19.53;63.81;100320.41;4993206;28;20551;-81
2022/07/21 05:18:31;;;;;;;6.25;3.70;;;;;;;20.16;64.14;100420.69;4992333;28;20033;-80
2022/07/21 05:20:56;;;;;;;7.90;3.33;;;;;;;19.68;63.69;100332.59;4993156;28;20520;-77
2022/07/21 05:23:22;;;;;;;5.45;3.28;;;;;;;20.01;64.26;100377.94;4993410;28;20034;-76
2022/07/21 05:25:47;;;;;;;7.78;3.08;;;;;;;20.29;63.75;100409.28;4993372;28;20473;-76
2022/07/21 05:28:12;;;;;;;9.18;2.97;;;;;;;20.46;63.47;100432.81;4993269;28;20038;-76
2022/07/21 05:30:38;;;;;;;7.10;2.85;;;;;;;20.56;62.66;100427.53;4993334;28;20042;-76
2022/07/21 05:33:03;;;;;;;5.10;3.10;;;;;;;20.65;62.67;100443.22;4992982;28;20066;-77
2022/07/21 05:35:30;;;;;;;5.47;2.88;;;;;;;20.57;62.59;100414.41;4992811;28;20023;-78
2022/07/21 05:37:55;;;;;;;4.38;2.85;;;;;;;20.77;62.34;100427.47;4992576;28;20037;-77
2022/07/21 05:40:21;;;;;;;6.72;3.00;;;;;;;20.82;62.59;100423.06;4993088;28;20026;-77
2022/07/21 05:42:46;;;;;;;3.67;2.63;;;;;;;20.74;62.42;100385.47;4992757;28;20114;-77
2022/07/21 05:45:12;;;;;;;5.15;2.90;;;;;;;21.12;61.93;100417.59;4992494;28;20033;-77
2022/07/21 05:47:38;;;;;;;6.00;2.65;;;;;;;21.14;61.82;100413.22;4992692;28;20038;-77
2022/07/21 05:50:04;;;;;;;9.13;3.05;;;;;;;21.19;61.96;100400.06;4992749;28;20032;-78
2022/07/21 05:52:30;;;;;;;8.32;2.97;;;;;;;21.49;61.56;100407.63;4957999;28;20046;-77
2022/07/21 05:54:55;;;;;;;5.03;3.53;;;;;;;21.50;60.92;100388.38;4992381;28;20022;-80
2022/07/21 05:57:21;;;;;;;5.65;4.18;;;;;;;21.69;60.12;100397.88;4992646;28;20088;-79
2022/07/21 05:59:46;;;;;;;6.30;3.60;;;;;;;21.80;60.51;100407.38;4992363;28;20080;-75
2022/07/21 06:02:12;;;;;;;14.02;4.70;;;;;;;21.90;60.34;100407.28;4975154;28;20038;-77
2022/07/21 06:04:37;;;;;;;6.63;3.20;;;;;;;22.01;60.16;100407.16;4972834;28;20018;-76
2022/07/21 06:07:03;;;;;;;8.00;3.05;;;;;;;22.05;60.25;100393.97;4973034;28;20062;-77
2022/07/21 06:09:28;;;;;;;6.22;3.10;;;;;;;22.20;59.81;100399.94;4973349;28;20118;-74
2022/07/21 06:11:54;;;;;;;5.40;3.05;;;;;;;21.91;59.84;100336.31;4972806;28;20486;-75
2022/07/21 06:14:20;;;;;;;7.90;3.03;;;;;;;22.47;59.62;100396.13;4972693;28;20054;-76
2022/07/21 06:16:45;;;;;;;7.82;3.13;;;;;;;22.64;60.24;100392.38;4978785;28;20121;-74
2022/07/21 06:19:11;;;;;;;6.57;3.17;;;;;;;22.80;59.79;100378.09;4977586;28;20037;-76
2022/07/21 06:21:36;;;;;;;7.82;3.70;;;;;;;23.03;59.26;100374.22;4983437;28;20031;-69
2022/07/21 06:24:02;;;;;;;4.57;2.67;;;;;;;23.16;56.35;100373.19;4988608;28;20034;-71
2022/07/21 06:26:28;;;;;;;10.02;3.58;;;;;;;23.17;55.22;100347.72;4981889;28;20115;-70
2022/07/21 06:28:54;;;;;;;11.05;3.55;;;;;;;23.43;54.61;100366.56;4988127;28;20030;-71
2022/07/21 06:31:19;;;;;;;6.28;3.08;;;;;;;23.60;53.83;100357.47;4982526;28;20533;-76
2022/07/21 06:33:45;;;;;;;6.38;3.17;;;;;;;23.78;51.84;100344.88;4981229;28;20034;-77
2022/07/21 06:36:10;;;;;;;6.53;3.00;;;;;;;23.98;51.50;100353.25;4981093;28;20018;-71
2022/07/21 06:38:36;;;;;;;7.22;3.00;;;;;;;24.17;51.18;100363.44;4977179;28;20048;-75
2022/07/21 06:41:02;;;;;;;6.07;3.00;;;;;;;24.31;51.17;100357.84;4979560;28;20038;-72
2022/07/21 06:43:27;;;;;;;7.63;3.05;;;;;;;24.43;50.67;100365.50;4971884;28;20031;-75
2022/07/21 06:45:53;;;;;;;10.55;3.13;;;;;;;24.58;50.00;100344.94;4982094;28;20544;-72
2022/07/21 06:48:21;;;;;;;6.10;3.30;;;;;;;24.80;49.06;100348.84;4981016;28;20059;-75
2022/07/21 06:50:47;;;;;;;5.05;2.85;;;;;;;24.93;49.22;100349.41;4979982;28;20072;-75
2022/07/21 06:53:13;;;;;;;6.07;3.10;;;;;;;25.17;48.64;100354.97;4973024;28;20077;-73
2022/07/21 06:55:39;;;;;;;4.97;2.63;;;;;;;25.34;48.13;100346.63;4931113;29;20090;-73
2022/07/21 06:58:15;;;;;;;6.30;2.70;;;;;;;25.55;45.67;100350.50;4931068;29;20036;-74
2022/07/21 07:00:41;;;;;;;4.38;2.40;;;;;;;25.57;46.63;100351.34;4931370;29;20039;-74
2022/07/21 07:03:07;;;;;;;5.13;2.70;;;;;;;25.60;45.12;100319.50;4931488;29;20035;-74
2022/07/21 07:05:33;;;;;;;4.25;2.33;;;;;;;25.81;46.55;100333.06;4931100;29;20501;-74
2022/07/21 07:07:58;;;;;;;4.13;2.85;;;;;;;26.08;46.28;100342.00;4931135;29;20092;-74
2022/07/21 07:10:24;;;;;;;7.40;2.60;;;;;;;26.02;43.63;100328.91;4931325;29;20564;-74
2022/07/21 07:12:50;;;;;;;4.63;2.35;;;;;;;26.22;43.59;100349.53;4931400;29;20039;-74
2022/07/21 07:15:15;;;;;;;3.80;2.10;;;;;;;26.27;43.38;100339.66;4931244;29;20036;-78
2022/07/21 07:17:41;;;;;;;4.25;2.58;;;;;;;26.28;44.68;100338.75;4930342;29;20040;-75
2022/07/21 07:20:07;;;;;;;4.53;2.00;;;;;;;26.52;43.51;100338.91;4931106;29;20031;-74
2022/07/21 07:22:33;;;;;;;7.40;2.70;;;;;;;26.59;43.09;100345.75;4931128;29;20036;-75
2022/07/21 07:24:59;;;;;;;6.03;2.47;;;;;;;26.41;42.68;100302.16;4931243;29;20032;-74
2022/07/21 07:27:24;;;;;;;9.13;2.70;;;;;;;26.83;42.34;100339.72;4964164;28;20050;-74
2022/07/21 07:29:50;;;;;;;4.18;2.45;;;;;;;26.78;42.24;100316.03;4971998;28;20038;-74
2022/07/21 07:32:35;;;;;;;6.28;2.78;;;;;;;27.06;41.89;100341.63;4931152;29;20561;-73
2022/07/21 07:35:01;;;;;;;5.28;2.50;;;;;;;27.25;43.28;100342.72;4931277;29;20040;-74
2022/07/21 07:37:27;;;;;;;4.68;2.40;;;;;;;27.34;42.34;100343.31;4931233;29;20171;-74
2022/07/21 07:39:52;;;;;;;4.75;2.53;;;;;;;27.22;43.45;100326.06;4931018;29;20040;-75
2022/07/21 07:42:18;;;;;;;3.25;2.33;;;;;;;27.36;42.50;100339.69;4930979;29;20042;-73
2022/07/21 07:44:43;;;;;;;7.15;2.55;;;;;;;27.07;41.34;100288.56;4930908;29;20032;-74
2022/07/21 07:47:09;;;;;;;4.53;2.38;;;;;;;27.55;40.72;100329.34;4930981;29;20048;-74
2022/07/21 07:49:34;;;;;;;8.00;2.40;;;;;;;27.70;39.90;100324.38;4931007;29;20034;-73
2022/07/21 07:52:00;;;;;;;3.92;2.22;;;;;;;27.74;39.40;100329.53;4914839;29;20041;-73
2022/07/21 07:54:25;;;;;;;5.20;2.40;;;;;;;27.93;38.76;100329.69;4930908;29;20036;-73
2022/07/21 07:56:50;;;;;;;5.13;2.40;;;;;;;28.04;40.70;100336.44;4930893;29;20040;-74
2022/07/21 07:59:16;;;;;;;6.93;2.20;;;;;;;28.09;36.92;100335.31;4930718;29;20054;-74
2022/07/21 08:01:42;;;;;;;5.20;2.00;;;;;;;28.11;39.96;100327.28;4930925;29;20103;-74
2022/07/21 08:04:07;;;;;;;3.38;2.42;;;;;;;28.31;38.26;100342.44;4960404;28;20092;-73
2022/07/21 08:06:33;;;;;;;2.30;1.90;;;;;;;28.20;38.71;100320.75;4971558;28;20185;-74
2022/07/21 08:08:59;;;;;;;2.45;2.10;;;;;;;28.05;36.60;100288.59;4971637;28;20417;-73
2022/07/21 08:11:24;;;;;;;5.55;2.35;;;;;;;28.40;35.51;100310.22;4971702;28;20034;-74
2022/07/21 08:13:50;;;;;;;4.97;2.17;;;;;;;28.54;37.88;100330.06;4971319;28;20031;-75
2022/07/21 08:16:16;;;;;;;3.97;1.77;;;;;;;28.59;38.65;100317.47;4971696;28;20065;-75
2022/07/21 08:18:42;;;;;;;2.95;2.30;;;;;;;28.65;39.14;100332.25;4971416;28;20127;-75
2022/07/21 08:21:09;;;;;;;4.57;2.75;;;;;;;28.63;37.66;100323.53;4971688;28;20038;-74
2022/07/21 08:23:34;;;;;;;6.07;2.10;;;;;;;28.62;38.66;100308.50;4971624;28;20114;-74
2022/07/21 08:26:00;;;;;;;6.13;2.00;;;;;;;28.70;38.66;100317.91;4971562;28;20102;-74
2022/07/21 08:28:25;;;;;;;4.68;2.22;;;;;;;28.88;37.60;100302.13;4972855;28;20027;-74
2022/07/21 08:30:51;;;;;;;5.45;2.30;;;;;;;29.12;36.48;100313.50;4975219;28;20034;-74
2022/07/21 08:33:16;;;;;;;3.80;2.20;;;;;;;29.21;35.95;100301.63;4974771;28;20030;-73
2022/07/21 08:35:42;;;;;;;3.47;2.05;;;;;;;29.36;38.79;100303.63;4974900;28;20058;-74
2022/07/21 08:38:09;;;;;;;8.75;2.55;;;;;;;29.48;35.42;100296.03;4974800;28;20035;-74
2022/07/21 08:40:39;;;;;;;4.80;2.15;;;;;;;29.76;35.52;100310.75;4973356;28;20035;-76
2022/07/21 08:43:06;;;;;;;3.38;2.17;;;;;;;29.54;40.38;100259.38;4974099;28;20126;-73
2022/07/21 08:45:32;;;;;;;8.60;2.15;;;;;;;29.74;36.10;100288.69;4974509;28;20026;-75
2022/07/21 08:47:59;;;;;;;4.70;2.20;;;;;;;29.91;36.70;100294.13;4974609;28;20086;-73
2022/07/21 08:50:28;;;;;;;7.63;2.25;;;;;;;29.99;34.84;100288.44;4974697;28;20051;-74
2022/07/21 08:52:53;;;;;;;3.15;2.13;;;;;;;29.92;33.57;100279.88;4974117;28;20485;-75
2022/07/21 08:55:19;;;;;;;6.53;2.13;;;;;;;30.11;32.72;100279.88;4975848;28;20138;-71
2022/07/21 08:57:44;;;;;;;3.65;1.80;;;;;;;30.26;33.04;100290.72;4984311;28;20582;-75
2022/07/21 09:00:12;;;;;;;4.00;2.03;;;;;;;30.36;32.68;100289.34;4980452;28;20485;-73
2022/07/21 09:02:38;;;;;;;6.97;2.40;;;;;;;30.22;32.48;100234.09;4980033;28;20039;-73
2022/07/21 09:05:08;;;;;;;3.15;2.20;;;;;;;30.61;32.84;100277.50;4980229;28;20473;-71
2022/07/21 09:07:51;;;;;;;6.22;2.20;;;;;;;30.82;31.96;100279.06;4982748;28;20519;-76
2022/07/21 09:10:24;;;;;;;6.13;1.90;;;;;;;30.89;33.85;100278.75;4982976;28;20818;-74
2022/07/21 09:12:55;;;;;;;3.45;2.10;;;;;;;30.68;31.89;100214.97;4983741;28;20039;-74
2022/07/21 09:15:23;;;;;;;6.20;2.20;;;;;;;31.06;31.42;100260.09;4976950;28;20042;-76
2022/07/21 09:18:11;;;;;;;4.10;1.90;;;;;;;31.22;30.99;100276.19;4974414;28;20030;-77
2022/07/21 09:20:39;;;;;;;6.97;2.42;;;;;;;31.32;36.91;100271.22;4973641;28;20163;-75
2022/07/21 09:23:06;;;;;;;4.30;2.35;;;;;;;31.10;31.28;100226.16;4973569;28;20090;-72
2022/07/21 09:25:37;;;;;;;6.18;2.00;;;;;;;31.50;30.08;100265.84;4989405;28;20655;-73
2022/07/21 09:28:14;;;;;;;5.25;2.17;;;;;;;31.62;30.74;100263.38;4993278;28;20038;-71
2022/07/21 09:30:50;;;;;;;4.15;2.22;;;;;;;31.80;31.07;100267.81;4984579;28;20484;-72
2022/07/21 09:33:23;;;;;;;6.80;2.20;;;;;;;31.86;30.34;100264.81;4982142;28;20500;-73
2022/07/21 09:36:04;;;;;;;6.75;2.78;;;;;;;31.99;34.40;100265.84;4979994;28;20414;-73
2022/07/21 09:38:32;;;;;;;7.88;2.10;;;;;;;31.91;31.51;100225.38;4980569;28;20059;-76
2022/07/21 09:41:14;;;;;;;5.50;2.30;;;;;;;32.21;28.84;100251.31;4974550;28;20023;-71
2022/07/21 09:43:43;;;;;;;4.38;2.33;;;;;;;32.18;28.37;100240.78;4988209;28;20023;-72
2022/07/21 09:46:17;;;;;;;6.65;2.15;;;;;;;32.28;28.04;100255.34;4970620;28;20042;-72
2022/07/21 09:48:46;;;;;;;4.03;2.15;;;;;;;32.23;28.89;100223.56;4992825;28;20465;-72
2022/07/21 09:51:30;;;;;;;3.05;1.98;;;;;;;32.69;30.43;100254.75;4992723;28;20065;-72
2022/07/21 09:54:08;;;;;;;4.18;2.22;;;;;;;32.77;28.73;100248.13;4992440;28;20092;-73
2022/07/21 09:56:43;;;;;;;5.05;2.10;;;;;;;32.84;29.45;100244.97;4992843;28;20042;-73
2022/07/21 09:59:11;;;;;;;5.45;2.00;;;;;;;32.99;29.85;100251.22;4992777;28;20026;-73
2022/07/21 10:01:37;;;;;;;7.88;2.30;;;;;;;32.66;31.64;100165.84;4992580;28;20515;-70
2022/07/21 10:04:03;;;;;;;4.07;2.35;;;;;;;33.32;29.39;100244.78;4981747;28;20080;-73
2022/07/21 10:06:37;;;;;;;3.15;1.80;;;;;;;33.41;27.63;100237.13;4972202;28;20023;-72
2022/07/21 10:09:05;;;;;;;6.82;2.20;;;;;;;33.48;28.07;100241.13;4969627;28;20481;-73
2022/07/21 10:11:31;;;;;;;7.10;2.20;;;;;;;33.38;29.34;100203.38;4973792;28;20089;-72
2022/07/21 10:13:57;;;;;;;6.13;2.00;;;;;;;33.61;30.83;100226.03;4977592;28;20113;-71
2022/07/21 10:16:23;;;;;;;8.02;2.33;;;;;;;33.66;28.60;100212.31;4979964;28;20026;-71
2022/07/21 10:19:08;;;;;;;5.68;2.00;;;;;;;33.79;26.67;100209.75;4970788;28;20030;-74
2022/07/21 10:22:00;;;;;;;3.22;2.00;;;;;;;33.99;26.12;100205.78;4970665;28;20070;-72
2022/07/21 10:24:30;;;;;;;3.10;2.08;;;;;;;34.21;29.09;100221.31;4979101;28;20027;-78
2022/07/21 10:27:07;;;;;;;3.22;2.10;;;;;;;34.42;26.25;100223.53;4974406;28;20043;-73
2022/07/21 10:29:48;;;;;;;7.90;2.10;;;;;;;34.51;26.13;100223.78;4970984;28;20018;-72
2022/07/21 10:32:23;;;;;;;5.20;2.20;;;;;;;34.71;25.59;100212.63;4971676;28;20039;-76
2022/07/21 10:35:28;;;;;;;7.60;2.47;;;;;;;34.92;27.25;100215.69;4930652;29;20503;-73
2022/07/21 10:37:55;;;;;;;3.17;2.00;;;;;;;34.89;26.97;100216.75;4930419;29;20047;-74
2022/07/21 10:40:20;;;;;;;3.90;2.20;;;;;;;34.93;25.51;100207.56;4930815;29;20039;-73
2022/07/21 10:43:06;;;;;;;4.22;2.30;;;;;;;34.68;27.66;100184.22;4930830;29;20045;-71
2022/07/21 10:45:31;;;;;;;4.57;2.13;;;;;;;34.61;26.67;100197.19;4856122;29;20037;-74
2022/07/21 10:47:57;;;;;;;6.22;2.00;;;;;;;34.18;28.83;100133.09;4855704;29;20425;-71
2022/07/21 10:50:41;;;;;;;8.00;2.55;;;;;;;34.38;26.15;100193.41;4856222;29;20444;-71
2022/07/21 10:53:15;;;;;;;3.97;2.05;;;;;;;34.67;26.60;100183.38;4824826;29;20140;-70
2022/07/21 10:55:51;;;;;;;6.80;2.25;;;;;;;34.42;27.76;100186.88;4856322;29;20038;-75
2022/07/21 10:58:24;;;;;;;6.50;2.53;;;;;;;34.55;25.93;100189.56;4847676;29;20042;-73
2022/07/21 11:01:02;;;;;;;5.90;2.15;;;;;;;34.67;25.64;100178.00;4856163;29;20037;-70
2022/07/21 11:03:38;;;;;;;5.07;2.20;;;;;;;34.33;25.07;100147.25;4855977;29;20053;-75
2022/07/21 11:06:24;;;;;;;5.60;2.40;;;;;;;34.72;25.67;100177.69;4855924;29;20038;-73
2022/07/21 11:08:52;;;;;;;6.07;2.40;;;;;;;35.03;25.04;100166.66;4855807;29;20057;-74
2022/07/21 11:11:18;;;;;;;7.17;2.70;;;;;;;35.25;27.98;100174.03;4855845;29;20032;-75
2022/07/21 11:14:00;;;;;;;3.25;1.98;;;;;;;35.42;23.75;100170.19;4910155;29;20679;-77
2022/07/21 11:16:52;;;;;;;3.88;2.00;;;;;;;35.58;24.91;100160.03;4911793;29;20052;-76
2022/07/21 11:19:39;;;;;;;4.85;2.10;;;;;;;35.70;26.15;100171.69;4911567;29;20032;-79
2022/07/21 11:22:25;;;;;;;8.07;2.50;;;;;;;35.81;24.29;100170.91;4913816;28;20043;-75
2022/07/21 11:24:51;;;;;;;9.18;2.70;;;;;;;35.95;24.52;100165.41;4970927;28;20591;-73
2022/07/21 11:27:22;;;;;;;10.25;2.53;;;;;;;36.18;26.79;100161.94;4971538;28;20038;-72
2022/07/21 11:29:49;;;;;;;3.47;2.10;;;;;;;36.38;25.66;100157.78;4971569;28;20049;-71